Time;durP1;ratioP1;P1;durP2;ratioP2;P2;SDS_P1;SDS_P2;PMS_P1;PMS_P2;Temp;Humidity;BMP_temperature;BMP_pressure;BME280_temperature;BME280_humidity;BME280_pressure;Samples;Min_cycle;Max_cycle;Signal;HPM_P1;HPM_P2
2022/09/11 00:01:17;;;;;;;1999.90;999.90;;;12.90;99.90;;;;;;4997442;28;20127;-66
2022/09/11 00:03:45;;;;;;;1999.90;999.90;;;12.80;99.90;;;;;;5001833;28;20049;-66
2022/09/11 00:06:13;;;;;;;1999.90;999.90;;;12.70;99.90;;;;;;5007267;28;20061;-66
2022/09/11 00:08:40;;;;;;;1999.90;999.90;;;12.70;99.90;;;;;;4997529;28;20052;-66
2022/09/11 00:11:17;;;;;;;1999.90;999.90;;;12.60;99.90;;;;;;5023349;28;20124;-66
2022/09/11 00:13:45;;;;;;;1999.90;999.90;;;12.50;99.90;;;;;;5063351;28;20069;-66
2022/09/11 00:16:22;;;;;;;1999.90;999.90;;;12.40;99.90;;;;;;5055748;28;20043;-66
2022/09/11 00:18:49;;;;;;;1999.90;999.90;;;12.40;99.90;;;;;;5086320;28;20123;-66
2022/09/11 00:21:16;;;;;;;1999.90;999.90;;;12.40;99.90;;;;;;5083255;28;20075;-66
2022/09/11 00:23:42;;;;;;;1999.90;999.90;;;12.30;99.90;;;;;;5086673;28;20052;-66
2022/09/11 00:26:08;;;;;;;1999.90;999.90;;;12.20;99.90;;;;;;5047537;28;20040;-66
2022/09/11 00:28:35;;;;;;;1999.90;999.90;;;12.20;99.90;;;;;;5083030;28;20075;-66
2022/09/11 00:31:13;;;;;;;1999.90;999.90;;;12.20;99.90;;;;;;5085256;28;20461;-66
2022/09/11 00:33:40;;;;;;;1999.90;999.90;;;12.20;99.90;;;;;;5066630;28;20724;-66
2022/09/11 00:36:11;;;;;;;1999.90;999.90;;;12.20;99.90;;;;;;5088548;28;20038;-66
2022/09/11 00:38:37;;;;;;;1999.90;999.90;;;12.30;99.90;;;;;;5075811;28;20044;-66
2022/09/11 00:41:06;;;;;;;1999.90;999.90;;;12.40;99.90;;;;;;5082367;28;20074;-66
2022/09/11 00:43:51;;;;;;;1999.90;999.90;;;12.60;99.90;;;;;;5049899;28;20036;-66
2022/09/11 00:46:16;;;;;;;1999.90;999.90;;;12.70;99.90;;;;;;5091289;28;20499;-66
2022/09/11 00:48:48;;;;;;;1999.90;999.90;;;12.80;99.90;;;;;;5088211;28;20047;-66
2022/09/11 00:51:16;;;;;;;1999.90;999.90;;;12.90;99.90;;;;;;5080602;28;20060;-66
2022/09/11 00:53:42;;;;;;;1999.90;999.90;;;12.90;99.90;;;;;;5086280;28;20487;-66
2022/09/11 00:56:09;;;;;;;1999.90;999.90;;;13.00;99.90;;;;;;5078141;28;20035;-66
2022/09/11 00:58:38;;;;;;;1999.90;999.90;;;13.10;99.90;;;;;;5055897;28;20040;-66
2022/09/11 01:01:04;;;;;;;1999.90;999.90;;;13.20;99.90;;;;;;5081355;28;20031;-66
2022/09/11 01:03:31;;;;;;;1999.90;999.90;;;13.30;99.90;;;;;;5080776;28;20392;-66
2022/09/11 01:05:57;;;;;;;1999.90;999.90;;;13.40;99.90;;;;;;5054723;28;20048;-66
2022/09/11 01:08:23;;;;;;;1999.90;999.90;;;13.40;99.90;;;;;;5062493;28;20043;-66
2022/09/11 01:11:24;;;;;;;1999.90;999.90;;;13.50;99.90;;;;;;5066241;28;20036;-66
2022/09/11 01:14:04;;;;;;;1999.90;999.90;;;13.50;99.90;;;;;;5086576;28;20446;-66
2022/09/11 01:16:52;;;;;;;1999.90;999.90;;;13.50;99.90;;;;;;5071989;28;20052;-66
2022/09/11 01:19:45;;;;;;;1999.90;999.90;;;13.40;99.90;;;;;;5079826;28;20052;-66
2022/09/11 01:22:51;;;;;;;1999.90;999.90;;;13.30;99.90;;;;;;5059005;28;20055;-66
2022/09/11 01:25:57;;;;;;;1999.90;999.90;;;13.20;99.90;;;;;;5072298;28;20079;-66
2022/09/11 01:28:30;;;;;;;1999.90;999.90;;;13.20;99.90;;;;;;5069826;28;20098;-66
2022/09/11 01:31:03;;;;;;;1999.90;999.90;;;13.10;99.90;;;;;;5049438;28;21780;-66
2022/09/11 01:33:43;;;;;;;1999.90;999.90;;;13.00;99.90;;;;;;5055599;28;20044;-66
2022/09/11 01:36:21;;;;;;;1999.90;999.90;;;12.90;99.90;;;;;;5084620;28;20031;-66
2022/09/11 01:38:55;;;;;;;1999.90;999.90;;;12.90;99.90;;;;;;5081049;28;20044;-66
2022/09/11 01:41:29;;;;;;;1999.90;999.90;;;12.80;99.90;;;;;;5059377;28;20032;-66
2022/09/11 01:44:23;;;;;;;1999.90;999.90;;;12.80;99.90;;;;;;5071057;28;20035;-66
2022/09/11 01:46:52;;;;;;;1999.90;999.90;;;12.70;99.90;;;;;;5071364;28;20507;-66
2022/09/11 01:49:34;;;;;;;1999.90;999.90;;;12.70;99.90;;;;;;5080243;28;20497;-66
2022/09/11 01:52:03;;;;;;;1999.90;999.90;;;12.60;99.90;;;;;;5075340;28;20153;-66
2022/09/11 01:54:34;;;;;;;1999.90;999.90;;;12.60;99.90;;;;;;5068758;28;20168;-66
2022/09/11 01:57:08;;;;;;;1999.90;999.90;;;12.50;99.90;;;;;;5085482;28;20044;-66
2022/09/11 01:59:43;;;;;;;1999.90;999.90;;;12.50;99.90;;;;;;5062780;28;20041;-66
2022/09/11 02:02:12;;;;;;;1999.90;999.90;;;12.40;99.90;;;;;;5044033;28;20079;-66
2022/09/11 02:05:09;;;;;;;1999.90;999.90;;;12.40;99.90;;;;;;5099001;28;20419;-66
2022/09/11 02:07:47;;;;;;;1999.90;999.90;;;12.40;99.90;;;;;;5082657;28;20051;-66
2022/09/11 02:10:19;;;;;;;1999.90;999.90;;;12.30;99.90;;;;;;5060214;28;20125;-66
2022/09/11 02:13:15;;;;;;;1999.90;999.90;;;12.30;99.90;;;;;;5087375;28;20519;-66
2022/09/11 02:15:51;;;;;;;1999.90;999.90;;;12.30;99.90;;;;;;5070062;28;20048;-66
2022/09/11 02:18:27;;;;;;;1999.90;999.90;;;12.20;99.90;;;;;;5054485;28;20928;-66
2022/09/11 02:20:53;;;;;;;1999.90;999.90;;;12.20;99.90;;;;;;5086671;28;20042;-66
2022/09/11 02:23:19;;;;;;;1999.90;999.90;;;12.20;99.90;;;;;;5078112;28;20036;-66
2022/09/11 02:25:46;;;;;;;1999.90;999.90;;;12.10;99.90;;;;;;5077299;28;20044;-66
2022/09/11 02:28:12;;;;;;;1999.90;999.90;;;12.10;99.90;;;;;;5062962;28;20040;-66
2022/09/11 02:30:41;;;;;;;1999.90;999.90;;;12.10;99.90;;;;;;5087892;28;20376;-66
2022/09/11 02:33:26;;;;;;;1999.90;999.90;;;12.00;99.90;;;;;;5089577;28;20131;-66
2022/09/11 02:36:04;;;;;;;1999.90;999.90;;;12.00;99.90;;;;;;5067878;28;20032;-66
2022/09/11 02:38:57;;;;;;;1999.90;999.90;;;11.90;99.90;;;;;;5080536;28;20043;-66
2022/09/11 02:41:28;;;;;;;1999.90;999.90;;;11.90;99.90;;;;;;5071607;28;20483;-66
2022/09/11 02:44:20;;;;;;;1999.90;999.90;;;11.80;99.90;;;;;;5083615;28;20052;-66
2022/09/11 02:47:13;;;;;;;1999.90;999.90;;;11.80;99.90;;;;;;5072734;28;20040;-66
2022/09/11 02:49:57;;;;;;;1999.90;999.90;;;11.70;99.90;;;;;;5077054;28;20040;-66
2022/09/11 02:52:47;;;;;;;1999.90;999.90;;;11.70;99.90;;;;;;5079085;28;20039;-66
2022/09/11 02:55:30;;;;;;;1999.90;999.90;;;11.70;99.90;;;;;;5071114;28;20055;-66
2022/09/11 02:58:06;;;;;;;1999.90;999.90;;;11.70;99.90;;;;;;5081508;28;20040;-66
2022/09/11 03:00:31;;;;;;;1999.90;999.90;;;11.60;99.90;;;;;;5067440;28;20149;-66
2022/09/11 03:02:58;;;;;;;1999.90;999.90;;;11.60;99.90;;;;;;5101524;28;20040;-67
2022/09/11 03:05:23;;;;;;;1999.90;999.90;;;11.50;99.90;;;;;;5080144;28;20722;-66
2022/09/11 03:07:49;;;;;;;1999.90;999.90;;;11.50;99.90;;;;;;5067710;28;20135;-66
2022/09/11 03:10:15;;;;;;;1999.90;999.90;;;11.50;99.90;;;;;;5075708;28;20503;-66
2022/09/11 03:12:40;;;;;;;1999.90;999.90;;;11.40;99.90;;;;;;5076153;28;21330;-66
2022/09/11 03:15:09;;;;;;;1999.90;999.90;;;11.40;99.90;;;;;;5053850;28;20040;-66
2022/09/11 03:17:34;;;;;;;1999.90;999.90;;;11.40;99.90;;;;;;5092056;28;20051;-66
2022/09/11 03:20:01;;;;;;;1999.90;999.90;;;11.40;99.90;;;;;;5057501;28;20526;-66
2022/09/11 03:22:26;;;;;;;1999.90;999.90;;;11.40;99.90;;;;;;5074708;28;20543;-66
2022/09/11 03:24:52;;;;;;;1999.90;999.90;;;11.30;99.90;;;;;;5084282;28;20044;-66
2022/09/11 03:27:17;;;;;;;1999.90;999.90;;;11.30;99.90;;;;;;5094815;28;20064;-66
2022/09/11 03:29:43;;;;;;;1999.90;999.90;;;11.30;99.90;;;;;;5081939;28;20040;-66
2022/09/11 03:32:09;;;;;;;1999.90;999.90;;;11.30;99.90;;;;;;5074903;28;20193;-66
2022/09/11 03:34:35;;;;;;;1999.90;999.90;;;11.50;99.90;;;;;;5079661;28;20047;-66
2022/09/11 03:37:01;;;;;;;1999.90;999.90;;;11.60;99.90;;;;;;5103457;28;20094;-66
2022/09/11 03:39:27;;;;;;;1999.90;999.90;;;11.70;99.90;;;;;;5089752;28;20039;-66
2022/09/11 03:41:53;;;;;;;1999.90;999.90;;;11.80;99.90;;;;;;5072262;28;20051;-66
2022/09/11 03:44:19;;;;;;;1999.90;999.90;;;11.80;99.90;;;;;;5062044;28;20086;-66
2022/09/11 03:46:44;;;;;;;1999.90;999.90;;;11.80;99.90;;;;;;5078737;28;20047;-66
2022/09/11 03:49:10;;;;;;;1999.90;999.90;;;11.80;99.90;;;;;;5079562;28;20400;-66
2022/09/11 03:51:35;;;;;;;1999.90;999.90;;;11.80;99.90;;;;;;5093119;28;20122;-66
2022/09/11 03:54:02;;;;;;;1999.90;999.90;;;11.70;99.90;;;;;;5090337;28;20043;-65
2022/09/11 03:56:27;;;;;;;1999.90;999.90;;;11.70;99.90;;;;;;5092001;28;20439;-65
2022/09/11 03:58:56;;;;;;;1999.90;999.90;;;11.60;99.90;;;;;;5075455;28;20078;-66
2022/09/11 04:01:22;;;;;;;1999.90;999.90;;;11.60;99.90;;;;;;5099865;28;20040;-67
2022/09/11 04:03:47;;;;;;;1999.90;999.90;;;11.50;99.90;;;;;;5073522;28;20044;-66
2022/09/11 04:06:13;;;;;;;1999.90;999.90;;;11.50;99.90;;;;;;5094806;28;20540;-66
2022/09/11 04:08:40;;;;;;;1999.90;999.90;;;11.50;99.90;;;;;;5080358;28;20044;-65
2022/09/11 04:11:06;;;;;;;1999.90;999.90;;;11.50;99.90;;;;;;5064352;28;20036;-66
2022/09/11 04:13:37;;;;;;;1999.90;999.90;;;11.50;99.90;;;;;;5076432;28;20372;-66
2022/09/11 04:16:09;;;;;;;1999.90;999.90;;;11.40;99.90;;;;;;5087167;28;20492;-66
2022/09/11 04:18:37;;;;;;;1999.90;999.90;;;11.40;99.90;;;;;;5063374;28;20043;-66
2022/09/11 04:21:07;;;;;;;1999.90;999.90;;;11.30;99.90;;;;;;5071929;28;20040;-66
2022/09/11 04:23:33;;;;;;;1999.90;999.90;;;11.30;99.90;;;;;;5075164;28;20560;-66
2022/09/11 04:25:59;;;;;;;1999.90;999.90;;;11.20;99.90;;;;;;5071285;28;20040;-66
2022/09/11 04:28:30;;;;;;;1999.90;999.90;;;11.20;99.90;;;;;;5085173;28;20391;-65
2022/09/11 04:31:01;;;;;;;1999.90;999.90;;;11.20;99.90;;;;;;5093281;28;20048;-65
2022/09/11 04:33:26;;;;;;;1999.90;999.90;;;11.10;99.90;;;;;;5075513;28;20036;-66
2022/09/11 04:35:52;;;;;;;1999.90;999.90;;;11.10;99.90;;;;;;5089355;28;20036;-66
2022/09/11 04:38:18;;;;;;;1999.90;999.90;;;11.10;99.90;;;;;;5097092;28;20035;-66
2022/09/11 04:40:44;;;;;;;1999.90;999.90;;;11.00;99.90;;;;;;5094450;28;20146;-65
2022/09/11 04:43:10;;;;;;;1999.90;999.90;;;11.00;99.90;;;;;;5081735;28;20047;-65
2022/09/11 04:45:37;;;;;;;1999.90;999.90;;;10.90;99.90;;;;;;5059141;28;20036;-65
2022/09/11 04:48:02;;;;;;;1999.90;999.90;;;10.90;99.90;;;;;;5090475;28;20533;-66
2022/09/11 04:50:29;;;;;;;1999.90;999.90;;;10.90;99.90;;;;;;5079486;28;20032;-65
2022/09/11 04:52:55;;;;;;;1999.90;999.90;;;10.90;99.90;;;;;;5072056;28;20086;-66
2022/09/11 04:55:21;;;;;;;1999.90;999.90;;;10.80;99.90;;;;;;5070023;28;20564;-66
2022/09/11 04:57:47;;;;;;;1999.90;999.90;;;10.80;99.90;;;;;;5079259;28;20078;-65
2022/09/11 05:00:13;;;;;;;1999.90;999.90;;;10.80;99.90;;;;;;5091238;28;20122;-66
2022/09/11 05:02:39;;;;;;;1999.90;999.90;;;10.80;99.90;;;;;;5067386;28;20244;-65
2022/09/11 05:05:06;;;;;;;1999.90;999.90;;;10.80;99.90;;;;;;5076515;28;20444;-66
2022/09/11 05:07:31;;;;;;;1999.90;999.90;;;10.70;99.90;;;;;;5074667;28;20039;-65
2022/09/11 05:09:57;;;;;;;1999.90;999.90;;;10.70;99.90;;;;;;5072112;28;20215;-65
2022/09/11 05:12:23;;;;;;;1999.90;999.90;;;10.80;99.90;;;;;;5091664;28;20452;-65
2022/09/11 05:14:48;;;;;;;1999.90;999.90;;;10.80;99.90;;;;;;5070923;28;20051;-66
2022/09/11 05:17:14;;;;;;;1999.90;999.90;;;10.80;99.90;;;;;;5100986;28;20487;-65
2022/09/11 05:19:40;;;;;;;1999.90;999.90;;;10.80;99.90;;;;;;5093132;28;20044;-65
2022/09/11 05:22:06;;;;;;;1999.90;999.90;;;10.90;99.90;;;;;;5071390;28;20510;-66
2022/09/11 05:24:31;;;;;;;1999.90;999.90;;;10.90;99.90;;;;;;5087446;28;20036;-65
2022/09/11 05:27:00;;;;;;;1999.90;999.90;;;10.80;99.90;;;;;;5088295;28;20062;-65
2022/09/11 05:29:28;;;;;;;1999.90;999.90;;;10.80;99.90;;;;;;5084788;28;20039;-65
2022/09/11 05:31:57;;;;;;;1999.90;999.90;;;10.80;99.90;;;;;;5085607;28;20519;-65
2022/09/11 05:34:27;;;;;;;1999.90;999.90;;;10.80;99.90;;;;;;5079317;28;20071;-65
2022/09/11 05:36:56;;;;;;;1999.90;999.90;;;10.80;99.90;;;;;;5077400;28;20043;-65
2022/09/11 05:39:23;;;;;;;1999.90;999.90;;;10.80;99.90;;;;;;5092652;28;20048;-65
2022/09/11 05:41:50;;;;;;;1999.90;999.90;;;10.90;99.90;;;;;;5070631;28;20078;-65
2022/09/11 05:44:16;;;;;;;1999.90;999.90;;;10.80;99.90;;;;;;5073537;28;20040;-65
2022/09/11 05:46:41;;;;;;;1999.90;999.90;;;10.80;99.90;;;;;;5089570;28;20392;-65
2022/09/11 05:49:07;;;;;;;1999.90;999.90;;;10.90;99.90;;;;;;5078386;28;20039;-65
2022/09/11 05:51:36;;;;;;;1999.90;999.90;;;10.90;99.90;;;;;;5087520;28;20039;-66
2022/09/11 05:54:02;;;;;;;1999.90;999.90;;;11.00;99.90;;;;;;5069694;28;20051;-65
2022/09/11 05:56:28;;;;;;;1999.90;999.90;;;11.00;99.90;;;;;;5053327;28;20054;-65
2022/09/11 05:58:54;;;;;;;1999.90;999.90;;;11.10;99.90;;;;;;5080208;28;20832;-65
2022/09/11 06:01:22;;;;;;;1999.90;999.90;;;11.10;99.90;;;;;;5065703;28;20047;-65
2022/09/11 06:03:48;;;;;;;1999.90;999.90;;;11.20;99.90;;;;;;5065264;28;20044;-65
2022/09/11 06:06:16;;;;;;;1999.90;999.90;;;11.30;99.90;;;;;;5066635;28;20081;-65
2022/09/11 06:08:46;;;;;;;1999.90;999.90;;;11.40;99.90;;;;;;5085073;28;20294;-66
2022/09/11 06:11:13;;;;;;;1999.90;999.90;;;11.50;99.90;;;;;;5078429;28;20400;-66
2022/09/11 06:13:42;;;;;;;1999.90;999.90;;;11.70;99.90;;;;;;5067379;28;20068;-65
2022/09/11 06:16:15;;;;;;;1999.90;999.90;;;11.80;99.90;;;;;;5088092;28;20381;-65
2022/09/11 06:18:41;;;;;;;1999.90;999.90;;;12.10;99.90;;;;;;5070216;28;20096;-65
2022/09/11 06:21:10;;;;;;;1999.90;999.90;;;12.20;99.90;;;;;;5068747;28;20665;-66
2022/09/11 06:23:37;;;;;;;1999.90;999.90;;;12.40;99.90;;;;;;5080683;28;20037;-66
2022/09/11 06:26:11;;;;;;;1999.90;999.90;;;12.60;99.90;;;;;;5069262;28;20063;-66
2022/09/11 06:28:38;;;;;;;1999.90;999.90;;;12.70;99.90;;;;;;5093593;28;20054;-66
2022/09/11 06:31:06;;;;;;;1999.90;999.90;;;12.80;99.90;;;;;;5089782;28;20058;-66
2022/09/11 06:33:38;;;;;;;1999.90;999.90;;;13.00;99.90;;;;;;5088770;28;20068;-66
2022/09/11 06:36:16;;;;;;;1999.90;999.90;;;13.20;99.90;;;;;;5068930;28;20036;-65
2022/09/11 06:38:43;;;;;;;1999.90;999.90;;;13.30;99.90;;;;;;5094214;28;20488;-65
2022/09/11 06:41:12;;;;;;;1999.90;999.90;;;13.50;99.90;;;;;;5088450;28;20090;-66
2022/09/11 06:43:38;;;;;;;1999.90;999.90;;;13.60;99.90;;;;;;5083045;28;20047;-66
2022/09/11 06:46:04;;;;;;;1999.90;999.90;;;13.70;99.90;;;;;;5067817;28;20598;-66
2022/09/11 06:48:30;;;;;;;1999.90;999.90;;;13.80;99.90;;;;;;5072628;28;21509;-66
2022/09/11 06:50:56;;;;;;;1999.90;999.90;;;13.90;99.90;;;;;;5074319;28;20043;-66
2022/09/11 06:53:22;;;;;;;1999.90;999.90;;;14.10;99.90;;;;;;5093047;28;20040;-66
2022/09/11 06:55:48;;;;;;;1999.90;999.90;;;14.20;99.90;;;;;;5086703;28;20108;-66
2022/09/11 06:58:14;;;;;;;1999.90;999.90;;;14.30;99.90;;;;;;5050426;28;20039;-66
2022/09/11 07:00:39;;;;;;;1999.90;999.90;;;14.40;99.90;;;;;;5049360;28;20544;-66
2022/09/11 07:03:06;;;;;;;1999.90;999.90;;;14.50;99.90;;;;;;5068811;28;20118;-66
2022/09/11 07:05:32;;;;;;;1999.90;999.90;;;14.60;99.90;;;;;;5094522;28;20036;-66
2022/09/11 07:07:58;;;;;;;1999.90;999.90;;;14.70;99.90;;;;;;5088559;28;20115;-66
2022/09/11 07:10:24;;;;;;;1999.90;999.90;;;14.80;99.90;;;;;;5063080;28;20579;-66
2022/09/11 07:12:52;;;;;;;1999.90;999.90;;;14.90;99.90;;;;;;5043964;28;20044;-66
2022/09/11 07:15:17;;;;;;;1999.90;999.90;;;15.00;99.90;;;;;;5075054;28;20067;-66
2022/09/11 07:17:43;;;;;;;1999.90;999.90;;;15.10;99.90;;;;;;5059194;28;20420;-65
2022/09/11 07:20:09;;;;;;;1999.90;999.90;;;15.20;99.90;;;;;;5087421;28;20044;-66
2022/09/11 07:22:35;;;;;;;1999.90;999.90;;;15.30;99.90;;;;;;5067796;28;20131;-66
2022/09/11 07:25:00;;;;;;;1999.90;999.90;;;15.40;99.90;;;;;;5068489;28;20661;-66
2022/09/11 07:27:27;;;;;;;1999.90;999.90;;;15.50;99.90;;;;;;5087973;28;20051;-66
2022/09/11 07:29:53;;;;;;;1999.90;999.90;;;15.60;99.90;;;;;;5064941;28;20039;-65
2022/09/11 07:32:18;;;;;;;1999.90;999.90;;;15.70;99.90;;;;;;5064962;28;20496;-65
2022/09/11 07:34:46;;;;;;;1999.90;999.90;;;15.80;99.90;;;;;;5068822;28;20043;-66
2022/09/11 07:37:12;;;;;;;1999.90;999.90;;;16.00;99.90;;;;;;5066053;28;20157;-66
2022/09/11 07:39:38;;;;;;;1999.90;999.90;;;16.00;99.90;;;;;;5064942;28;21862;-66
2022/09/11 07:42:06;;;;;;;1999.90;999.90;;;16.20;99.90;;;;;;5081568;28;20032;-66
2022/09/11 07:44:32;;;;;;;1999.90;999.90;;;16.30;99.90;;;;;;5091354;28;20384;-66
2022/09/11 07:46:58;;;;;;;1999.90;999.90;;;16.40;99.90;;;;;;5069238;28;20044;-65
2022/09/11 07:49:23;;;;;;;1999.90;999.90;;;16.50;99.90;;;;;;5055758;28;20453;-65
2022/09/11 07:51:49;;;;;;;1999.90;999.90;;;16.80;99.90;;;;;;5086478;28;20548;-65
2022/09/11 07:54:14;;;;;;;1999.90;999.90;;;17.00;99.90;;;;;;5054356;28;20040;-65
2022/09/11 07:56:40;;;;;;;1999.90;999.90;;;17.20;99.90;;;;;;5086120;28;20093;-66
2022/09/11 07:59:07;;;;;;;1999.90;999.90;;;17.30;99.90;;;;;;5087466;28;20073;-65
2022/09/11 08:01:33;;;;;;;1999.90;999.90;;;17.40;99.90;;;;;;5081351;28;20046;-66
2022/09/11 08:04:05;;;;;;;1999.90;999.90;;;17.50;99.90;;;;;;5076920;28;20044;-66
2022/09/11 08:06:33;;;;;;;1999.90;999.90;;;17.60;99.90;;;;;;5086641;28;20047;-66
2022/09/11 08:09:03;;;;;;;1999.90;999.90;;;17.60;99.90;;;;;;5076668;28;20058;-66
2022/09/11 08:11:30;;;;;;;1999.90;999.90;;;17.70;99.90;;;;;;5066738;28;20036;-66
2022/09/11 08:13:56;;;;;;;1999.90;999.90;;;17.80;99.90;;;;;;5069286;28;20739;-66
2022/09/11 08:16:26;;;;;;;1999.90;999.90;;;17.80;99.90;;;;;;5069385;28;20142;-66
2022/09/11 08:18:52;;;;;;;1999.90;999.90;;;17.90;99.90;;;;;;5068682;28;20079;-66
2022/09/11 08:21:18;;;;;;;1999.90;999.90;;;18.00;99.90;;;;;;5078297;28;20776;-66
2022/09/11 08:23:44;;;;;;;1999.90;999.90;;;18.20;99.90;;;;;;5069333;28;20032;-66
2022/09/11 08:26:13;;;;;;;1999.90;999.90;;;18.40;99.90;;;;;;5101268;28;20075;-66
2022/09/11 08:28:41;;;;;;;1999.90;999.90;;;18.50;99.90;;;;;;5063090;28;20040;-66
2022/09/11 08:31:07;;;;;;;1999.90;999.90;;;18.80;99.90;;;;;;5090135;28;20113;-66
2022/09/11 08:33:34;;;;;;;1999.90;999.90;;;19.20;99.90;;;;;;5084345;28;20032;-66
2022/09/11 08:36:02;;;;;;;1999.90;999.90;;;19.80;99.90;;;;;;5062374;28;20123;-67
2022/09/11 08:38:28;;;;;;;1999.90;999.90;;;20.50;99.90;;;;;;5085029;28;20039;-67
2022/09/11 08:40:56;;;;;;;1999.90;999.90;;;20.60;99.90;;;;;;5051748;28;20152;-67
2022/09/11 08:43:26;;;;;;;1999.90;999.90;;;20.50;99.90;;;;;;5064075;28;20043;-67
2022/09/11 08:45:57;;;;;;;1999.90;999.90;;;20.40;99.90;;;;;;5045795;28;20486;-67
2022/09/11 08:48:36;;;;;;;1999.90;999.90;;;20.30;99.90;;;;;;5080105;28;20082;-67
2022/09/11 08:51:03;;;;;;;1999.90;999.90;;;20.20;99.90;;;;;;5063956;28;20048;-67
2022/09/11 08:53:31;;;;;;;1999.90;999.90;;;20.10;99.90;;;;;;5067760;28;20399;-67
2022/09/11 08:56:04;;;;;;;1999.90;999.90;;;20.00;99.90;;;;;;5045391;28;20040;-67
2022/09/11 08:58:43;;;;;;;1999.90;999.90;;;19.90;99.90;;;;;;5051275;28;20043;-67
2022/09/11 09:01:35;;;;;;;1999.90;999.90;;;19.90;99.90;;;;;;5067931;28;20049;-67
2022/09/11 09:04:34;;;;;;;1999.90;999.90;;;19.80;99.90;;;;;;5058077;28;20036;-67
2022/09/11 09:07:04;;;;;;;1999.90;999.90;;;19.80;99.90;;;;;;5067759;28;20040;-67
2022/09/11 09:09:46;;;;;;;1999.90;999.90;;;19.70;99.90;;;;;;5069291;28;20036;-67
2022/09/11 09:12:39;;;;;;;1999.90;999.90;;;19.70;99.90;;;;;;5062822;28;20071;-68
2022/09/11 09:15:17;;;;;;;1999.90;999.90;;;19.60;99.90;;;;;;5061109;28;20090;-67
2022/09/11 09:18:02;;;;;;;1999.90;999.90;;;19.60;99.90;;;;;;5064822;28;20048;-67
2022/09/11 09:20:36;;;;;;;1999.90;999.90;;;19.60;99.90;;;;;;5056671;28;20068;-67
2022/09/11 09:23:24;;;;;;;1999.90;999.90;;;19.60;99.90;;;;;;5069324;28;20558;-67
2022/09/11 09:25:51;;;;;;;1999.90;999.90;;;19.70;99.90;;;;;;5064083;28;20510;-67
2022/09/11 09:28:42;;;;;;;1999.90;999.90;;;20.30;99.90;;;;;;5067521;28;20044;-67
2022/09/11 09:31:13;;;;;;;1999.90;999.90;;;21.40;99.90;;;;;;5086988;28;20120;-67
2022/09/11 09:33:49;;;;;;;1999.90;999.90;;;21.80;99.90;;;;;;5063094;28;20072;-67
2022/09/11 09:36:23;;;;;;;1999.90;999.90;;;22.40;99.90;;;;;;5078234;28;20054;-67
2022/09/11 09:38:52;;;;;;;1999.90;999.90;;;23.00;99.90;;;;;;5064682;28;20102;-67
2022/09/11 09:41:43;;;;;;;1999.90;999.90;;;23.20;99.90;;;;;;5051709;28;20039;-67
2022/09/11 09:44:17;;;;;;;1999.90;999.90;;;22.70;99.90;;;;;;5071179;28;20585;-67
2022/09/11 09:46:49;;;;;;;1999.90;999.90;;;22.30;99.90;;;;;;5078177;28;20055;-67
2022/09/11 09:49:27;;;;;;;1999.90;999.90;;;22.20;99.90;;;;;;5085854;28;20040;-67
2022/09/11 09:51:55;;;;;;;1999.90;999.90;;;22.30;99.90;;;;;;5085042;28;20384;-67
2022/09/11 09:54:25;;;;;;;1999.90;999.90;;;22.60;99.90;;;;;;5086249;28;20044;-67
2022/09/11 09:57:01;;;;;;;1999.90;999.90;;;23.00;99.90;;;;;;5083516;28;20876;-67
2022/09/11 10:00:05;;;;;;;1999.90;999.90;;;23.10;99.90;;;;;;5084425;28;20048;-67
2022/09/11 10:02:37;;;;;;;1999.90;999.90;;;23.20;99.90;;;;;;5072678;28;20055;-68
2022/09/11 10:05:37;;;;;;;1999.90;999.90;;;22.80;99.90;;;;;;5078529;28;20139;-67
2022/09/11 10:08:05;;;;;;;1999.90;999.90;;;22.50;99.90;;;;;;5088592;28;20047;-67
2022/09/11 10:10:35;;;;;;;1999.90;999.90;;;22.70;99.90;;;;;;5067404;28;20560;-68
2022/09/11 10:13:23;;;;;;;1999.90;999.90;;;22.90;99.90;;;;;;5082892;28;20041;-67
2022/09/11 10:15:54;;;;;;;1999.90;999.90;;;23.30;99.90;;;;;;5070636;28;20041;-67
2022/09/11 10:18:45;;;;;;;1999.90;999.90;;;23.40;99.90;;;;;;5085041;28;20047;-68
2022/09/11 10:21:11;;;;;;;1999.90;999.90;;;23.50;99.90;;;;;;5048044;28;20139;-67
2022/09/11 10:24:08;;;;;;;1999.90;999.90;;;23.60;99.90;;;;;;5066099;28;20143;-68
2022/09/11 10:26:44;;;;;;;1999.90;999.90;;;23.70;99.90;;;;;;5047737;28;20056;-68
2022/09/11 10:29:21;;;;;;;1999.90;999.90;;;23.70;99.90;;;;;;5081052;28;20042;-68
2022/09/11 10:31:54;;;;;;;1999.90;999.90;;;23.80;99.90;;;;;;5063713;28;20077;-67
2022/09/11 10:34:22;;;;;;;1999.90;999.90;;;23.90;99.90;;;;;;5078664;28;20048;-67
2022/09/11 10:37:06;;;;;;;1999.90;999.90;;;24.10;99.90;;;;;;5062707;28;20059;-68
2022/09/11 10:39:35;;;;;;;1999.90;999.90;;;24.20;99.90;;;;;;5063100;28;20044;-68
2022/09/11 10:42:22;;;;;;;1999.90;999.90;;;24.20;99.90;;;;;;5028782;28;20048;-68
2022/09/11 10:44:50;;;;;;;1999.90;999.90;;;24.20;99.90;;;;;;5055811;28;20044;-68
2022/09/11 10:47:20;;;;;;;1999.90;999.90;;;24.50;99.90;;;;;;5060996;28;20044;-68
2022/09/11 10:49:47;;;;;;;1999.90;999.90;;;24.80;99.90;;;;;;5062228;28;20406;-68
2022/09/11 10:52:13;;;;;;;1999.90;999.90;;;25.00;99.90;;;;;;5058751;28;20033;-68
2022/09/11 10:54:57;;;;;;;1999.90;999.90;;;25.10;99.90;;;;;;5065127;28;20468;-68
2022/09/11 10:57:43;;;;;;;1999.90;999.90;;;25.20;99.90;;;;;;5077098;28;20393;-68
2022/09/11 11:00:22;;;;;;;1999.90;999.90;;;25.50;99.90;;;;;;5058102;28;20044;-68
2022/09/11 11:02:54;;;;;;;1999.90;999.90;;;25.20;99.90;;;;;;5066678;28;20046;-67
2022/09/11 11:05:37;;;;;;;1999.90;999.90;;;24.80;99.90;;;;;;5069255;28;20040;-67
2022/09/11 11:08:20;;;;;;;1999.90;999.90;;;24.30;99.90;;;;;;5059806;28;20052;-68
2022/09/11 11:10:50;;;;;;;1999.90;999.90;;;23.70;99.90;;;;;;5055180;28;20115;-67
2022/09/11 11:13:40;;;;;;;1999.90;999.90;;;23.20;99.90;;;;;;5058471;28;20051;-67
2022/09/11 11:16:34;;;;;;;1999.90;999.90;;;22.60;99.90;;;;;;5063422;28;20060;-67
2022/09/11 11:19:24;;;;;;;1999.90;999.90;;;22.20;99.90;;;;;;5038559;28;20827;-67
2022/09/11 11:22:05;;;;;;;1999.90;999.90;;;21.80;99.90;;;;;;5081831;28;20044;-67
2022/09/11 11:25:00;;;;;;;1999.90;999.90;;;21.60;99.90;;;;;;5061652;28;20043;-68
2022/09/11 11:28:03;;;;;;;1999.90;999.90;;;21.40;99.90;;;;;;5073956;28;20051;-67
2022/09/11 11:30:36;;;;;;;1999.90;999.90;;;21.30;99.90;;;;;;5043633;28;20044;-67
2022/09/11 11:33:30;;;;;;;1999.90;999.90;;;21.30;99.90;;;;;;5064465;28;20037;-67
2022/09/11 11:36:09;;;;;;;1999.90;999.90;;;21.30;99.90;;;;;;5059974;28;20701;-67
2022/09/11 11:38:50;;;;;;;1999.90;999.90;;;21.90;99.90;;;;;;5054810;28;20051;-67
2022/09/11 11:41:31;;;;;;;1999.90;999.90;;;22.40;99.90;;;;;;5079091;28;20067;-67
2022/09/11 11:44:02;;;;;;;1999.90;999.90;;;23.00;99.90;;;;;;5079584;28;20039;-67
2022/09/11 11:46:37;;;;;;;1999.90;999.90;;;23.50;99.90;;;;;;5069351;28;20044;-68
2022/09/11 11:49:24;;;;;;;1999.90;999.90;;;24.10;99.90;;;;;;5099617;28;20044;-67
2022/09/11 11:52:13;;;;;;;1999.90;999.90;;;24.40;99.90;;;;;;5080453;28;20039;-67
2022/09/11 11:54:51;;;;;;;1999.90;999.90;;;24.50;99.90;;;;;;5065335;28;20074;-67
2022/09/11 11:57:22;;;;;;;1999.90;999.90;;;24.40;99.90;;;;;;5072173;28;20043;-67
2022/09/11 12:00:01;;;;;;;1999.90;999.90;;;24.60;99.90;;;;;;5047143;28;20271;-67
2022/09/11 12:02:34;;;;;;;1999.90;999.90;;;25.00;99.90;;;;;;5061106;28;20052;-67
2022/09/11 12:05:09;;;;;;;1999.90;999.90;;;25.10;99.90;;;;;;5085656;28;20508;-68
2022/09/11 12:07:40;;;;;;;1999.90;999.90;;;24.80;99.90;;;;;;5062413;28;20044;-67
2022/09/11 12:10:16;;;;;;;1999.90;999.90;;;24.40;99.90;;;;;;5074137;28;20483;-67
2022/09/11 12:12:48;;;;;;;1999.90;999.90;;;24.00;99.90;;;;;;5075757;28;20530;-67
2022/09/11 12:15:23;;;;;;;1999.90;999.90;;;23.60;99.90;;;;;;5057400;28;20048;-67
2022/09/11 12:18:09;;;;;;;1999.90;999.90;;;23.40;99.90;;;;;;5060409;28;20044;-67
2022/09/11 12:20:40;;;;;;;1999.90;999.90;;;23.20;99.90;;;;;;5058099;28;20657;-67
2022/09/11 12:23:26;;;;;;;1999.90;999.90;;;23.10;99.90;;;;;;5069477;28;20056;-68